sensor_id;sensor_type;location;lat;lon;timestamp;pressure;altitude;pressure_sealevel;temperature;humidity
10606;BME280;5350;42.698;23.148;2023-06-19T00:01:01;93772.22;;;18.46;100.00
10606;BME280;5350;42.698;23.148;2023-06-19T00:03:28;93773.75;;;18.34;100.00
10606;BME280;5350;42.698;23.148;2023-06-19T00:05:54;93771.53;;;18.36;98.41
10606;BME280;5350;42.698;23.148;2023-06-19T00:08:22;93771.97;;;18.38;99.79
10606;BME280;5350;42.698;23.148;2023-06-19T00:10:50;93775.09;;;18.28;99.21
10606;BME280;5350;42.698;23.148;2023-06-19T00:13:16;93769.41;;;18.30;99.99
10606;BME280;5350;42.698;23.148;2023-06-19T00:15:44;93768.44;;;18.22;95.64
10606;BME280;5350;42.698;23.148;2023-06-19T00:18:11;93768.19;;;18.27;97.17
10606;BME280;5350;42.698;23.148;2023-06-19T00:20:38;93761.88;;;18.20;99.02
10606;BME280;5350;42.698;23.148;2023-06-19T00:23:04;93755.31;;;18.17;97.75
10606;BME280;5350;42.698;23.148;2023-06-19T00:25:37;93756.56;;;18.08;97.42
10606;BME280;5350;42.698;23.148;2023-06-19T00:28:04;93759.22;;;18.08;98.63
10606;BME280;5350;42.698;23.148;2023-06-19T00:30:39;93755.47;;;18.21;95.00
10606;BME280;5350;42.698;23.148;2023-06-19T00:33:05;93753.22;;;18.23;96.19
10606;BME280;5350;42.698;23.148;2023-06-19T00:35:32;93759.75;;;18.25;95.31
10606;BME280;5350;42.698;23.148;2023-06-19T00:37:59;93754.66;;;18.32;95.79
10606;BME280;5350;42.698;23.148;2023-06-19T00:40:28;93761.31;;;18.38;94.32
10606;BME280;5350;42.698;23.148;2023-06-19T00:42:57;93765.09;;;18.38;94.65
10606;BME280;5350;42.698;23.148;2023-06-19T00:45:24;93759.53;;;18.43;94.71
10606;BME280;5350;42.698;23.148;2023-06-19T00:47:51;93757.13;;;18.50;92.83
10606;BME280;5350;42.698;23.148;2023-06-19T00:50:18;93751.34;;;18.35;94.57
10606;BME280;5350;42.698;23.148;2023-06-19T00:52:46;93758.47;;;18.44;94.58
10606;BME280;5350;42.698;23.148;2023-06-19T00:55:13;93744.16;;;18.48;94.58
10606;BME280;5350;42.698;23.148;2023-06-19T00:57:41;93748.81;;;18.51;94.08
10606;BME280;5350;42.698;23.148;2023-06-19T01:00:11;93745.78;;;18.53;95.29
10606;BME280;5350;42.698;23.148;2023-06-19T01:02:38;93741.81;;;18.47;94.70
10606;BME280;5350;42.698;23.148;2023-06-19T01:05:05;93741.25;;;18.53;96.82
10606;BME280;5350;42.698;23.148;2023-06-19T01:07:38;93750.69;;;18.51;96.40
10606;BME280;5350;42.698;23.148;2023-06-19T01:10:12;93739.59;;;18.49;97.14
10606;BME280;5350;42.698;23.148;2023-06-19T01:12:42;93741.69;;;18.43;95.34
10606;BME280;5350;42.698;23.148;2023-06-19T01:15:17;93733.81;;;18.34;96.17
10606;BME280;5350;42.698;23.148;2023-06-19T01:17:45;93736.13;;;18.36;96.91
10606;BME280;5350;42.698;23.148;2023-06-19T01:20:13;93731.69;;;18.40;97.29
10606;BME280;5350;42.698;23.148;2023-06-19T01:22:42;93727.69;;;18.34;97.49
10606;BME280;5350;42.698;23.148;2023-06-19T01:25:09;93733.59;;;18.15;98.74
10606;BME280;5350;42.698;23.148;2023-06-19T01:27:36;93720.50;;;18.22;98.07
10606;BME280;5350;42.698;23.148;2023-06-19T01:30:04;93727.38;;;18.11;97.72
10606;BME280;5350;42.698;23.148;2023-06-19T01:32:36;93731.59;;;18.12;98.35
10606;BME280;5350;42.698;23.148;2023-06-19T01:35:08;93729.81;;;18.04;97.64
10606;BME280;5350;42.698;23.148;2023-06-19T01:37:36;93729.81;;;18.04;97.77
10606;BME280;5350;42.698;23.148;2023-06-19T01:40:08;93724.91;;;17.94;97.21
10606;BME280;5350;42.698;23.148;2023-06-19T01:42:37;93728.91;;;18.00;97.35
10606;BME280;5350;42.698;23.148;2023-06-19T01:45:06;93725.06;;;17.98;96.84
10606;BME280;5350;42.698;23.148;2023-06-19T01:47:33;93731.81;;;17.95;96.76
10606;BME280;5350;42.698;23.148;2023-06-19T01:50:00;93726.25;;;18.00;95.42
10606;BME280;5350;42.698;23.148;2023-06-19T01:52:27;93734.66;;;17.90;97.27
10606;BME280;5350;42.698;23.148;2023-06-19T01:54:54;93726.03;;;17.81;98.88
10606;BME280;5350;42.698;23.148;2023-06-19T01:57:22;93738.09;;;17.79;98.87
10606;BME280;5350;42.698;23.148;2023-06-19T01:59:49;93740.31;;;17.77;99.36
10606;BME280;5350;42.698;23.148;2023-06-19T02:02:15;93739.84;;;17.63;100.00
10606;BME280;5350;42.698;23.148;2023-06-19T02:04:42;93740.75;;;17.67;100.00
10606;BME280;5350;42.698;23.148;2023-06-19T02:07:09;93733.31;;;17.60;100.00
10606;BME280;5350;42.698;23.148;2023-06-19T02:09:37;93743.69;;;17.53;100.00
10606;BME280;5350;42.698;23.148;2023-06-19T02:12:04;93739.22;;;17.45;100.00
10606;BME280;5350;42.698;23.148;2023-06-19T02:14:33;93747.78;;;17.50;100.00
10606;BME280;5350;42.698;23.148;2023-06-19T02:16:59;93750.75;;;17.49;100.00
10606;BME280;5350;42.698;23.148;2023-06-19T02:19:26;93741.97;;;17.48;100.00
10606;BME280;5350;42.698;23.148;2023-06-19T02:21:53;93745.13;;;17.50;100.00
10606;BME280;5350;42.698;23.148;2023-06-19T02:24:19;93747.19;;;17.45;100.00
10606;BME280;5350;42.698;23.148;2023-06-19T02:26:46;93750.94;;;17.44;100.00
10606;BME280;5350;42.698;23.148;2023-06-19T02:29:13;93760.81;;;17.43;100.00
10606;BME280;5350;42.698;23.148;2023-06-19T02:31:41;93755.81;;;17.42;100.00
10606;BME280;5350;42.698;23.148;2023-06-19T02:34:08;93767.56;;;17.41;100.00
10606;BME280;5350;42.698;23.148;2023-06-19T02:36:36;93765.44;;;17.34;100.00
10606;BME280;5350;42.698;23.148;2023-06-19T02:39:04;93756.00;;;17.25;100.00
10606;BME280;5350;42.698;23.148;2023-06-19T02:41:31;93769.41;;;17.28;100.00
10606;BME280;5350;42.698;23.148;2023-06-19T02:43:58;93768.50;;;17.24;100.00
10606;BME280;5350;42.698;23.148;2023-06-19T02:46:26;93771.78;;;17.21;100.00
10606;BME280;5350;42.698;23.148;2023-06-19T02:48:54;93765.16;;;17.27;100.00
10606;BME280;5350;42.698;23.148;2023-06-19T02:51:21;93767.84;;;17.07;100.00
10606;BME280;5350;42.698;23.148;2023-06-19T02:53:47;93773.56;;;16.97;100.00
10606;BME280;5350;42.698;23.148;2023-06-19T02:56:14;93775.31;;;16.93;100.00
10606;BME280;5350;42.698;23.148;2023-06-19T02:58:41;93777.56;;;16.82;100.00
10606;BME280;5350;42.698;23.148;2023-06-19T03:01:07;93760.09;;;16.60;100.00
10606;BME280;5350;42.698;23.148;2023-06-19T03:03:34;93782.50;;;16.71;100.00
10606;BME280;5350;42.698;23.148;2023-06-19T03:06:05;93783.16;;;16.68;100.00
10606;BME280;5350;42.698;23.148;2023-06-19T03:08:33;93783.78;;;16.65;100.00
10606;BME280;5350;42.698;23.148;2023-06-19T03:10:59;93771.63;;;16.64;100.00
10606;BME280;5350;42.698;23.148;2023-06-19T03:13:26;93769.41;;;16.66;100.00
10606;BME280;5350;42.698;23.148;2023-06-19T03:15:53;93774.78;;;16.58;100.00
10606;BME280;5350;42.698;23.148;2023-06-19T03:18:20;93775.81;;;16.65;100.00
10606;BME280;5350;42.698;23.148;2023-06-19T03:20:46;93775.19;;;16.68;100.00
10606;BME280;5350;42.698;23.148;2023-06-19T03:23:14;93776.66;;;16.57;100.00
10606;BME280;5350;42.698;23.148;2023-06-19T03:25:41;93767.78;;;16.53;100.00
10606;BME280;5350;42.698;23.148;2023-06-19T03:28:08;93784.91;;;16.64;100.00
10606;BME280;5350;42.698;23.148;2023-06-19T03:30:35;93773.38;;;16.60;100.00
10606;BME280;5350;42.698;23.148;2023-06-19T03:33:02;93774.13;;;16.61;100.00
10606;BME280;5350;42.698;23.148;2023-06-19T03:35:28;93771.78;;;16.59;100.00
10606;BME280;5350;42.698;23.148;2023-06-19T03:37:55;93771.78;;;16.59;100.00
10606;BME280;5350;42.698;23.148;2023-06-19T03:40:23;93765.06;;;16.62;100.00
10606;BME280;5350;42.698;23.148;2023-06-19T03:42:50;93773.16;;;16.65;100.00
10606;BME280;5350;42.698;23.148;2023-06-19T03:45:16;93765.69;;;16.59;100.00
10606;BME280;5350;42.698;23.148;2023-06-19T03:47:43;93766.56;;;16.71;100.00
10606;BME280;5350;42.698;23.148;2023-06-19T03:50:10;93775.59;;;16.79;100.00
10606;BME280;5350;42.698;23.148;2023-06-19T03:52:36;93764.41;;;16.86;100.00
10606;BME280;5350;42.698;23.148;2023-06-19T03:55:04;93769.72;;;16.86;100.00
10606;BME280;5350;42.698;23.148;2023-06-19T03:57:32;93751.97;;;16.77;100.00
10606;BME280;5350;42.698;23.148;2023-06-19T03:59:59;93753.78;;;16.86;100.00
10606;BME280;5350;42.698;23.148;2023-06-19T04:02:25;93774.13;;;17.02;100.00
10606;BME280;5350;42.698;23.148;2023-06-19T04:04:53;93778.69;;;17.02;100.00
10606;BME280;5350;42.698;23.148;2023-06-19T04:07:20;93776.09;;;17.14;100.00
10606;BME280;5350;42.698;23.148;2023-06-19T04:09:46;93773.44;;;17.14;100.00
10606;BME280;5350;42.698;23.148;2023-06-19T04:12:13;93779.25;;;17.28;100.00
10606;BME280;5350;42.698;23.148;2023-06-19T04:14:41;93779.25;;;17.28;100.00
10606;BME280;5350;42.698;23.148;2023-06-19T04:17:08;93775.28;;;17.34;100.00
10606;BME280;5350;42.698;23.148;2023-06-19T04:19:34;93776.06;;;17.34;99.82
10606;BME280;5350;42.698;23.148;2023-06-19T04:22:01;93779.28;;;17.40;100.00
10606;BME280;5350;42.698;23.148;2023-06-19T04:24:28;93770.56;;;17.39;100.00
10606;BME280;5350;42.698;23.148;2023-06-19T04:26:54;93776.44;;;17.45;99.02
10606;BME280;5350;42.698;23.148;2023-06-19T04:29:21;93769.19;;;17.54;99.21
10606;BME280;5350;42.698;23.148;2023-06-19T04:31:49;93766.56;;;17.66;100.00
10606;BME280;5350;42.698;23.148;2023-06-19T04:34:17;93769.91;;;17.75;98.90
10606;BME280;5350;42.698;23.148;2023-06-19T04:36:46;93770.59;;;17.84;95.48
10606;BME280;5350;42.698;23.148;2023-06-19T04:39:13;93761.28;;;17.90;95.94
10606;BME280;5350;42.698;23.148;2023-06-19T04:41:40;93757.75;;;17.98;96.58
10606;BME280;5350;42.698;23.148;2023-06-19T04:44:09;93760.19;;;18.03;96.66
10606;BME280;5350;42.698;23.148;2023-06-19T04:46:36;93760.66;;;18.05;92.24
10606;BME280;5350;42.698;23.148;2023-06-19T04:49:05;93773.06;;;18.13;96.75
10606;BME280;5350;42.698;23.148;2023-06-19T04:51:32;93765.41;;;18.24;93.80
10606;BME280;5350;42.698;23.148;2023-06-19T04:53:59;93760.44;;;18.34;93.52
10606;BME280;5350;42.698;23.148;2023-06-19T04:56:25;93765.53;;;18.40;91.91
10606;BME280;5350;42.698;23.148;2023-06-19T04:58:52;93762.47;;;18.50;93.67
10606;BME280;5350;42.698;23.148;2023-06-19T05:01:22;93762.00;;;18.60;92.97
10606;BME280;5350;42.698;23.148;2023-06-19T05:03:54;93762.31;;;18.70;93.04
10606;BME280;5350;42.698;23.148;2023-06-19T05:06:23;93765.31;;;18.81;94.74
10606;BME280;5350;42.698;23.148;2023-06-19T05:08:49;93764.41;;;18.89;91.51
10606;BME280;5350;42.698;23.148;2023-06-19T05:11:16;93765.28;;;18.93;90.87
10606;BME280;5350;42.698;23.148;2023-06-19T05:13:43;93762.56;;;19.05;93.28
10606;BME280;5350;42.698;23.148;2023-06-19T05:16:10;93761.03;;;19.04;90.71
10606;BME280;5350;42.698;23.148;2023-06-19T05:18:37;93757.72;;;18.95;89.22
10606;BME280;5350;42.698;23.148;2023-06-19T05:21:03;93778.78;;;19.12;90.04
10606;BME280;5350;42.698;23.148;2023-06-19T05:23:31;93776.06;;;19.24;88.93
10606;BME280;5350;42.698;23.148;2023-06-19T05:25:58;93775.63;;;19.34;90.73
10606;BME280;5350;42.698;23.148;2023-06-19T05:28:25;93786.59;;;19.45;89.75
10606;BME280;5350;42.698;23.148;2023-06-19T05:30:51;93795.38;;;19.45;85.19
10606;BME280;5350;42.698;23.148;2023-06-19T05:33:18;93795.31;;;19.57;88.67
10606;BME280;5350;42.698;23.148;2023-06-19T05:35:45;93794.06;;;19.67;87.43
10606;BME280;5350;42.698;23.148;2023-06-19T05:38:16;93788.47;;;19.72;88.46
10606;BME280;5350;42.698;23.148;2023-06-19T05:40:44;93786.06;;;19.82;87.48
10606;BME280;5350;42.698;23.148;2023-06-19T05:43:11;93792.19;;;19.83;82.33
10606;BME280;5350;42.698;23.148;2023-06-19T05:45:38;93785.28;;;19.82;84.32
10606;BME280;5350;42.698;23.148;2023-06-19T05:48:05;93795.97;;;19.82;85.59
10606;BME280;5350;42.698;23.148;2023-06-19T05:50:32;93787.06;;;19.90;84.61
10606;BME280;5350;42.698;23.148;2023-06-19T05:52:58;93800.50;;;20.09;83.30
10606;BME280;5350;42.698;23.148;2023-06-19T05:55:25;93801.34;;;20.13;82.49
10606;BME280;5350;42.698;23.148;2023-06-19T05:57:55;93805.53;;;20.26;83.42
10606;BME280;5350;42.698;23.148;2023-06-19T06:00:22;93803.56;;;20.39;84.34
10606;BME280;5350;42.698;23.148;2023-06-19T06:02:49;93810.72;;;20.35;81.83
10606;BME280;5350;42.698;23.148;2023-06-19T06:05:17;93806.84;;;20.48;82.85
10606;BME280;5350;42.698;23.148;2023-06-19T06:07:44;93806.56;;;20.53;78.49
10606;BME280;5350;42.698;23.148;2023-06-19T06:10:11;93802.94;;;20.61;83.79
10606;BME280;5350;42.698;23.148;2023-06-19T06:12:38;93809.03;;;20.77;80.93
10606;BME280;5350;42.698;23.148;2023-06-19T06:15:07;93805.41;;;20.85;83.00
10606;BME280;5350;42.698;23.148;2023-06-19T06:17:33;93814.63;;;20.88;76.29
10606;BME280;5350;42.698;23.148;2023-06-19T06:20:00;93816.28;;;20.92;77.70
10606;BME280;5350;42.698;23.148;2023-06-19T06:22:28;93789.91;;;20.75;75.93
10606;BME280;5350;42.698;23.148;2023-06-19T06:24:55;93821.19;;;20.90;73.38
10606;BME280;5350;42.698;23.148;2023-06-19T06:27:21;93799.09;;;20.93;75.96
10606;BME280;5350;42.698;23.148;2023-06-19T06:29:48;93801.16;;;21.00;71.25
10606;BME280;5350;42.698;23.148;2023-06-19T06:32:16;93825.13;;;21.12;74.64
10606;BME280;5350;42.698;23.148;2023-06-19T06:34:43;93828.84;;;21.07;72.84
10606;BME280;5350;42.698;23.148;2023-06-19T06:37:10;93824.44;;;21.15;69.08
10606;BME280;5350;42.698;23.148;2023-06-19T06:39:37;93818.78;;;21.20;71.51
10606;BME280;5350;42.698;23.148;2023-06-19T06:42:04;93833.25;;;21.34;72.06
10606;BME280;5350;42.698;23.148;2023-06-19T06:44:30;93820.22;;;21.33;72.12
10606;BME280;5350;42.698;23.148;2023-06-19T06:46:57;93823.41;;;21.38;67.70
10606;BME280;5350;42.698;23.148;2023-06-19T06:49:25;93821.84;;;21.37;67.09
10606;BME280;5350;42.698;23.148;2023-06-19T06:51:52;93826.50;;;21.40;69.55
10606;BME280;5350;42.698;23.148;2023-06-19T06:54:19;93818.47;;;21.40;70.37
10606;BME280;5350;42.698;23.148;2023-06-19T06:56:45;93820.88;;;21.45;70.61
10606;BME280;5350;42.698;23.148;2023-06-19T06:59:13;93827.66;;;21.59;71.23
10606;BME280;5350;42.698;23.148;2023-06-19T07:01:41;93834.28;;;21.84;68.85
10606;BME280;5350;42.698;23.148;2023-06-19T07:04:08;93825.53;;;21.87;63.21
10606;BME280;5350;42.698;23.148;2023-06-19T07:06:36;93825.31;;;21.95;65.74
10606;BME280;5350;42.698;23.148;2023-06-19T07:09:03;93823.13;;;22.01;65.65
10606;BME280;5350;42.698;23.148;2023-06-19T07:11:29;93823.69;;;22.10;68.59
10606;BME280;5350;42.698;23.148;2023-06-19T07:13:56;93820.91;;;22.25;68.32
10606;BME280;5350;42.698;23.148;2023-06-19T07:16:23;93825.31;;;22.37;63.41
10606;BME280;5350;42.698;23.148;2023-06-19T07:18:49;93819.34;;;22.47;56.50
10606;BME280;5350;42.698;23.148;2023-06-19T07:21:16;93829.72;;;22.49;52.74
10606;BME280;5350;42.698;23.148;2023-06-19T07:23:45;93810.97;;;22.49;55.63
10606;BME280;5350;42.698;23.148;2023-06-19T07:26:13;93824.00;;;22.50;58.11
10606;BME280;5350;42.698;23.148;2023-06-19T07:28:40;93827.22;;;22.59;58.98
10606;BME280;5350;42.698;23.148;2023-06-19T07:31:07;93824.53;;;22.59;60.35
10606;BME280;5350;42.698;23.148;2023-06-19T07:33:34;93816.38;;;22.75;59.19
10606;BME280;5350;42.698;23.148;2023-06-19T07:36:01;93834.38;;;22.74;58.93
10606;BME280;5350;42.698;23.148;2023-06-19T07:38:29;93831.28;;;22.72;58.88
10606;BME280;5350;42.698;23.148;2023-06-19T07:40:57;93830.81;;;22.67;57.17
10606;BME280;5350;42.698;23.148;2023-06-19T07:43:24;93832.94;;;22.80;61.58
10606;BME280;5350;42.698;23.148;2023-06-19T07:45:50;93834.69;;;22.95;55.02
10606;BME280;5350;42.698;23.148;2023-06-19T07:48:17;93807.66;;;23.08;53.78
10606;BME280;5350;42.698;23.148;2023-06-19T07:50:44;93834.78;;;23.29;54.85
10606;BME280;5350;42.698;23.148;2023-06-19T07:53:11;93828.97;;;23.23;51.04
10606;BME280;5350;42.698;23.148;2023-06-19T07:55:38;93832.78;;;23.22;53.16
10606;BME280;5350;42.698;23.148;2023-06-19T07:58:06;93834.38;;;23.27;49.92
10606;BME280;5350;42.698;23.148;2023-06-19T08:00:32;93831.94;;;23.18;48.82
10606;BME280;5350;42.698;23.148;2023-06-19T08:02:59;93826.66;;;23.22;51.82
10606;BME280;5350;42.698;23.148;2023-06-19T08:05:26;93837.78;;;23.50;47.41
10606;BME280;5350;42.698;23.148;2023-06-19T08:07:52;93839.41;;;23.58;46.71
10606;BME280;5350;42.698;23.148;2023-06-19T08:10:19;93832.13;;;23.55;47.12
10606;BME280;5350;42.698;23.148;2023-06-19T08:12:46;93828.50;;;23.44;46.30
10606;BME280;5350;42.698;23.148;2023-06-19T08:15:14;93822.63;;;23.35;47.68
10606;BME280;5350;42.698;23.148;2023-06-19T08:17:41;93828.19;;;23.49;49.15
10606;BME280;5350;42.698;23.148;2023-06-19T08:20:09;93833.22;;;23.54;52.97
10606;BME280;5350;42.698;23.148;2023-06-19T08:22:36;93828.19;;;23.49;53.78
10606;BME280;5350;42.698;23.148;2023-06-19T08:25:04;93828.69;;;23.58;55.21
10606;BME280;5350;42.698;23.148;2023-06-19T08:27:31;93825.81;;;23.73;53.67
10606;BME280;5350;42.698;23.148;2023-06-19T08:29:57;93817.06;;;23.80;49.29
10606;BME280;5350;42.698;23.148;2023-06-19T08:32:26;93839.94;;;24.00;47.57
10606;BME280;5350;42.698;23.148;2023-06-19T08:34:53;93833.19;;;24.13;47.92
10606;BME280;5350;42.698;23.148;2023-06-19T08:37:19;93829.94;;;24.34;50.71
10606;BME280;5350;42.698;23.148;2023-06-19T08:39:46;93826.56;;;24.40;46.62
10606;BME280;5350;42.698;23.148;2023-06-19T08:42:13;93828.97;;;24.52;47.45
10606;BME280;5350;42.698;23.148;2023-06-19T08:44:39;93825.06;;;24.46;47.55
10606;BME280;5350;42.698;23.148;2023-06-19T08:47:07;93813.53;;;24.46;50.21
10606;BME280;5350;42.698;23.148;2023-06-19T08:49:35;93815.81;;;24.40;48.60
10606;BME280;5350;42.698;23.148;2023-06-19T08:52:03;93817.34;;;24.41;50.59
10606;BME280;5350;42.698;23.148;2023-06-19T08:54:30;93818.13;;;24.42;50.76
10606;BME280;5350;42.698;23.148;2023-06-19T08:57:00;93812.47;;;24.57;44.09
10606;BME280;5350;42.698;23.148;2023-06-19T08:59:26;93823.44;;;24.79;43.97
10606;BME280;5350;42.698;23.148;2023-06-19T09:01:54;93820.69;;;24.72;44.23
10606;BME280;5350;42.698;23.148;2023-06-19T09:04:23;93808.50;;;24.85;46.93
10606;BME280;5350;42.698;23.148;2023-06-19T09:06:54;93819.47;;;25.09;45.86
10606;BME280;5350;42.698;23.148;2023-06-19T09:09:22;93827.50;;;25.06;43.62
10606;BME280;5350;42.698;23.148;2023-06-19T09:11:59;93814.75;;;24.99;40.98
10606;BME280;5350;42.698;23.148;2023-06-19T09:14:33;93817.63;;;24.73;44.59
10606;BME280;5350;42.698;23.148;2023-06-19T09:17:01;93818.13;;;24.86;45.24
10606;BME280;5350;42.698;23.148;2023-06-19T09:19:28;93818.53;;;24.88;43.54
10606;BME280;5350;42.698;23.148;2023-06-19T09:22:01;93818.69;;;25.09;43.90
10606;BME280;5350;42.698;23.148;2023-06-19T09:24:36;93814.03;;;25.06;43.80
10606;BME280;5350;42.698;23.148;2023-06-19T09:27:10;93808.69;;;25.13;46.12
10606;BME280;5350;42.698;23.148;2023-06-19T09:29:39;93806.78;;;25.13;45.61
10606;BME280;5350;42.698;23.148;2023-06-19T09:32:16;93808.03;;;25.30;45.05
10606;BME280;5350;42.698;23.148;2023-06-19T09:34:43;93831.03;;;25.20;45.14
10606;BME280;5350;42.698;23.148;2023-06-19T09:37:11;93820.19;;;25.03;47.68
10606;BME280;5350;42.698;23.148;2023-06-19T09:39:39;93817.91;;;25.08;44.77
10606;BME280;5350;42.698;23.148;2023-06-19T09:42:07;93817.19;;;25.15;47.54
10606;BME280;5350;42.698;23.148;2023-06-19T09:44:39;93818.03;;;25.26;46.68
10606;BME280;5350;42.698;23.148;2023-06-19T09:47:18;93815.28;;;25.19;45.86
10606;BME280;5350;42.698;23.148;2023-06-19T09:49:50;93811.84;;;25.22;42.91
10606;BME280;5350;42.698;23.148;2023-06-19T09:52:21;93811.84;;;25.22;43.31
10606;BME280;5350;42.698;23.148;2023-06-19T09:54:50;93803.06;;;25.32;44.85
10606;BME280;5350;42.698;23.148;2023-06-19T09:57:16;93811.97;;;25.43;41.86
10606;BME280;5350;42.698;23.148;2023-06-19T09:59:46;93816.28;;;25.58;43.67
10606;BME280;5350;42.698;23.148;2023-06-19T10:02:15;93803.06;;;25.39;43.03
10606;BME280;5350;42.698;23.148;2023-06-19T10:04:44;93805.38;;;25.37;43.47
10606;BME280;5350;42.698;23.148;2023-06-19T10:07:16;93802.22;;;25.24;42.61
10606;BME280;5350;42.698;23.148;2023-06-19T10:09:58;93798.16;;;25.45;39.24
10606;BME280;5350;42.698;23.148;2023-06-19T10:12:39;93800.47;;;25.50;41.17
10606;BME280;5350;42.698;23.148;2023-06-19T10:15:16;93766.50;;;25.31;40.47
10606;BME280;5350;42.698;23.148;2023-06-19T10:17:46;93799.78;;;25.63;40.43
10606;BME280;5350;42.698;23.148;2023-06-19T10:20:26;93804.03;;;25.71;40.70
10606;BME280;5350;42.698;23.148;2023-06-19T10:23:03;93799.09;;;25.94;43.28
10606;BME280;5350;42.698;23.148;2023-06-19T10:25:33;93797.59;;;25.97;39.88
10606;BME280;5350;42.698;23.148;2023-06-19T10:28:01;93800.19;;;25.76;39.80
10606;BME280;5350;42.698;23.148;2023-06-19T10:30:28;93796.41;;;26.01;40.60
10606;BME280;5350;42.698;23.148;2023-06-19T10:32:55;93791.16;;;26.37;40.22
10606;BME280;5350;42.698;23.148;2023-06-19T10:35:22;93793.09;;;26.57;41.00
10606;BME280;5350;42.698;23.148;2023-06-19T10:37:50;93785.34;;;26.56;38.61
10606;BME280;5350;42.698;23.148;2023-06-19T10:40:17;93790.38;;;26.54;40.23
10606;BME280;5350;42.698;23.148;2023-06-19T10:42:45;93788.47;;;26.51;43.10
10606;BME280;5350;42.698;23.148;2023-06-19T10:45:14;93787.72;;;26.75;41.71
10606;BME280;5350;42.698;23.148;2023-06-19T10:47:42;93793.88;;;26.93;42.07
10606;BME280;5350;42.698;23.148;2023-06-19T10:50:11;93788.09;;;26.77;42.35
10606;BME280;5350;42.698;23.148;2023-06-19T10:52:40;93792.31;;;26.85;42.04
10606;BME280;5350;42.698;23.148;2023-06-19T10:55:08;93790.78;;;26.77;41.11
10606;BME280;5350;42.698;23.148;2023-06-19T10:57:35;93783.88;;;26.76;41.01
10606;BME280;5350;42.698;23.148;2023-06-19T11:00:05;93785.00;;;27.03;43.18
10606;BME280;5350;42.698;23.148;2023-06-19T11:02:37;93779.22;;;27.01;40.99
10606;BME280;5350;42.698;23.148;2023-06-19T11:05:05;93772.63;;;27.16;44.84
10606;BME280;5350;42.698;23.148;2023-06-19T11:07:32;93776.09;;;27.20;39.47
10606;BME280;5350;42.698;23.148;2023-06-19T11:09:59;93771.47;;;27.10;41.39
10606;BME280;5350;42.698;23.148;2023-06-19T11:12:26;93762.97;;;27.22;40.65
10606;BME280;5350;42.698;23.148;2023-06-19T11:14:53;93772.22;;;27.25;39.08
10606;BME280;5350;42.698;23.148;2023-06-19T11:17:22;93760.66;;;27.24;39.95
10606;BME280;5350;42.698;23.148;2023-06-19T11:19:49;93769.16;;;27.12;38.69
10606;BME280;5350;42.698;23.148;2023-06-19T11:22:16;93757.63;;;26.94;41.38
10606;BME280;5350;42.698;23.148;2023-06-19T11:24:44;93752.59;;;27.07;38.12
10606;BME280;5350;42.698;23.148;2023-06-19T11:27:19;93761.38;;;27.49;38.30
10606;BME280;5350;42.698;23.148;2023-06-19T11:29:54;93766.75;;;27.56;38.50
10606;BME280;5350;42.698;23.148;2023-06-19T11:32:22;93752.88;;;27.47;38.40
10606;BME280;5350;42.698;23.148;2023-06-19T11:34:51;93759.69;;;27.84;39.62
10606;BME280;5350;42.698;23.148;2023-06-19T11:37:19;93760.28;;;28.19;35.16
10606;BME280;5350;42.698;23.148;2023-06-19T11:39:47;93754.81;;;28.30;35.11
10606;BME280;5350;42.698;23.148;2023-06-19T11:42:14;93754.00;;;28.33;35.91
10606;BME280;5350;42.698;23.148;2023-06-19T11:44:55;93754.16;;;28.12;37.40
10606;BME280;5350;42.698;23.148;2023-06-19T11:47:23;93757.63;;;28.09;38.31
10606;BME280;5350;42.698;23.148;2023-06-19T11:49:50;93765.41;;;28.03;38.01
10606;BME280;5350;42.698;23.148;2023-06-19T11:52:17;93752.91;;;28.23;37.31
10606;BME280;5350;42.698;23.148;2023-06-19T11:54:44;93717.97;;;28.46;38.17
10606;BME280;5350;42.698;23.148;2023-06-19T11:57:11;93751.34;;;28.77;37.03
10606;BME280;5350;42.698;23.148;2023-06-19T11:59:38;93743.25;;;28.77;36.53
10606;BME280;5350;42.698;23.148;2023-06-19T12:02:05;93750.06;;;28.92;35.84
10606;BME280;5350;42.698;23.148;2023-06-19T12:04:34;93744.16;;;29.04;36.42
10606;BME280;5350;42.698;23.148;2023-06-19T12:07:01;93754.78;;;29.26;36.75
10606;BME280;5350;42.698;23.148;2023-06-19T12:09:29;93749.19;;;28.62;35.55
10606;BME280;5350;42.698;23.148;2023-06-19T12:11:57;93739.91;;;28.59;36.68
10606;BME280;5350;42.698;23.148;2023-06-19T12:14:23;93747.72;;;28.46;38.17
10606;BME280;5350;42.698;23.148;2023-06-19T12:16:51;93749.72;;;28.39;37.29
10606;BME280;5350;42.698;23.148;2023-06-19T12:19:18;93743.00;;;28.54;38.27
10606;BME280;5350;42.698;23.148;2023-06-19T12:21:46;93742.63;;;29.03;36.91
10606;BME280;5350;42.698;23.148;2023-06-19T12:24:13;93741.50;;;29.38;35.79
10606;BME280;5350;42.698;23.148;2023-06-19T12:26:40;93736.13;;;29.35;36.53
10606;BME280;5350;42.698;23.148;2023-06-19T12:29:07;93751.38;;;29.14;36.61
10606;BME280;5350;42.698;23.148;2023-06-19T12:31:34;93737.94;;;29.07;36.73
10606;BME280;5350;42.698;23.148;2023-06-19T12:34:01;93733.84;;;29.30;35.80
10606;BME280;5350;42.698;23.148;2023-06-19T12:36:28;93732.88;;;29.47;35.08
10606;BME280;5350;42.698;23.148;2023-06-19T12:38:58;93726.50;;;29.64;36.70
10606;BME280;5350;42.698;23.148;2023-06-19T12:41:25;93741.78;;;29.47;34.41
10606;BME280;5350;42.698;23.148;2023-06-19T12:43:52;93734.75;;;29.87;35.40
10606;BME280;5350;42.698;23.148;2023-06-19T12:46:19;93725.19;;;29.75;34.56
10606;BME280;5350;42.698;23.148;2023-06-19T12:48:46;93730.25;;;29.73;33.72
10606;BME280;5350;42.698;23.148;2023-06-19T12:51:16;93730.59;;;29.79;32.99
10606;BME280;5350;42.698;23.148;2023-06-19T12:53:43;93720.59;;;29.69;33.84
10606;BME280;5350;42.698;23.148;2023-06-19T12:56:11;93722.41;;;29.49;34.44
10606;BME280;5350;42.698;23.148;2023-06-19T12:58:37;93733.03;;;29.66;33.87
10606;BME280;5350;42.698;23.148;2023-06-19T13:01:04;93729.88;;;29.38;34.70